sensor_id;sensor_type;location;lat;lon;timestamp;pressure;altitude;pressure_sealevel;temperature;humidity
788;BME280;16074;42.708;23.312;2023-03-23T00:00:59;139875.28;;;6.48;100.00
788;BME280;16074;42.708;23.312;2023-03-23T00:03:28;139874.13;;;6.48;100.00
788;BME280;16074;42.708;23.312;2023-03-23T00:05:57;139847.72;;;6.37;100.00
788;BME280;16074;42.708;23.312;2023-03-23T00:08:30;139841.72;;;6.34;100.00
788;BME280;16074;42.708;23.312;2023-03-23T00:10:57;139850.13;;;6.38;100.00
788;BME280;16074;42.708;23.312;2023-03-23T00:13:28;139846.50;;;6.36;100.00
788;BME280;16074;42.708;23.312;2023-03-23T00:15:56;139853.69;;;6.39;100.00
788;BME280;16074;42.708;23.312;2023-03-23T00:18:24;139887.28;;;6.53;100.00
788;BME280;16074;42.708;23.312;2023-03-23T00:20:55;139906.50;;;6.61;100.00
788;BME280;16074;42.708;23.312;2023-03-23T00:23:24;139910.06;;;6.63;100.00
788;BME280;16074;42.708;23.312;2023-03-23T00:25:52;139936.47;;;6.74;100.00
788;BME280;16074;42.708;23.312;2023-03-23T00:28:23;139952.03;;;6.80;100.00
788;BME280;16074;42.708;23.312;2023-03-23T00:30:55;139955.69;;;6.82;100.00
788;BME280;16074;42.708;23.312;2023-03-23T00:33:24;139961.66;;;6.84;100.00
788;BME280;16074;42.708;23.312;2023-03-23T00:35:53;139956.84;;;6.82;100.00
788;BME280;16074;42.708;23.312;2023-03-23T00:38:21;139958.06;;;6.83;100.00
788;BME280;16074;42.708;23.312;2023-03-23T00:40:49;139952.03;;;6.80;100.00
788;BME280;16074;42.708;23.312;2023-03-23T00:43:18;139954.44;;;6.81;100.00
788;BME280;16074;42.708;23.312;2023-03-23T00:45:50;139952.03;;;6.80;100.00
788;BME280;16074;42.708;23.312;2023-03-23T00:48:19;139948.47;;;6.79;100.00
788;BME280;16074;42.708;23.312;2023-03-23T00:50:46;139944.91;;;6.77;100.00
788;BME280;16074;42.708;23.312;2023-03-23T00:53:15;139942.50;;;6.76;100.00
788;BME280;16074;42.708;23.312;2023-03-23T00:55:43;139958.06;;;6.83;100.00
788;BME280;16074;42.708;23.312;2023-03-23T00:58:10;139973.66;;;6.89;100.00
788;BME280;16074;42.708;23.312;2023-03-23T01:00:39;139984.47;;;6.94;100.00
788;BME280;16074;42.708;23.312;2023-03-23T01:03:08;139982.06;;;6.93;100.00
788;BME280;16074;42.708;23.312;2023-03-23T01:05:38;139995.25;;;6.98;100.00
788;BME280;16074;42.708;23.312;2023-03-23T01:08:07;139998.88;;;7.00;100.00
788;BME280;16074;42.708;23.312;2023-03-23T01:10:37;140010.88;;;7.05;100.00
788;BME280;16074;42.708;23.312;2023-03-23T01:13:05;140009.66;;;7.04;100.00
788;BME280;16074;42.708;23.312;2023-03-23T01:15:33;140002.47;;;7.01;100.00
788;BME280;16074;42.708;23.312;2023-03-23T01:18:01;140002.47;;;7.01;100.00
788;BME280;16074;42.708;23.312;2023-03-23T01:20:28;139907.66;;;6.62;100.00
788;BME280;16074;42.708;23.312;2023-03-23T01:22:57;139845.31;;;6.36;100.00
788;BME280;16074;42.708;23.312;2023-03-23T01:25:27;139794.94;;;6.15;100.00
788;BME280;16074;42.708;23.312;2023-03-23T01:27:57;139796.19;;;6.15;100.00
788;BME280;16074;42.708;23.312;2023-03-23T01:30:25;139774.59;;;6.06;100.00
788;BME280;16074;42.708;23.312;2023-03-23T01:32:54;139799.75;;;6.17;100.00
788;BME280;16074;42.708;23.312;2023-03-23T01:35:22;139781.78;;;6.09;100.00
788;BME280;16074;42.708;23.312;2023-03-23T01:37:51;139772.19;;;6.05;100.00
788;BME280;16074;42.708;23.312;2023-03-23T01:40:18;139762.59;;;6.01;100.00
788;BME280;16074;42.708;23.312;2023-03-23T01:42:45;139763.78;;;6.02;100.00
788;BME280;16074;42.708;23.312;2023-03-23T01:45:25;139772.19;;;6.05;100.00
788;BME280;16074;42.708;23.312;2023-03-23T01:47:57;139767.38;;;6.03;100.00
788;BME280;16074;42.708;23.312;2023-03-23T01:50:28;139777.00;;;6.07;100.00
788;BME280;16074;42.708;23.312;2023-03-23T01:52:57;139773.38;;;6.06;100.00
788;BME280;16074;42.708;23.312;2023-03-23T01:55:27;139770.97;;;6.05;100.00
788;BME280;16074;42.708;23.312;2023-03-23T01:57:55;139773.38;;;6.06;100.00
788;BME280;16074;42.708;23.312;2023-03-23T02:00:25;139774.59;;;6.06;100.00
788;BME280;16074;42.708;23.312;2023-03-23T02:02:54;139777.00;;;6.07;100.00
788;BME280;16074;42.708;23.312;2023-03-23T02:05:28;139790.16;;;6.13;100.00
788;BME280;16074;42.708;23.312;2023-03-23T02:08:02;139811.75;;;6.22;100.00
788;BME280;16074;42.708;23.312;2023-03-23T02:10:34;139846.50;;;6.36;100.00
788;BME280;16074;42.708;23.312;2023-03-23T02:13:03;139880.09;;;6.50;100.00
788;BME280;16074;42.708;23.312;2023-03-23T02:15:39;139902.88;;;6.60;100.00
788;BME280;16074;42.708;23.312;2023-03-23T02:18:20;139892.09;;;6.55;100.00
788;BME280;16074;42.708;23.312;2023-03-23T02:21:09;139894.50;;;6.56;100.00
788;BME280;16074;42.708;23.312;2023-03-23T02:23:57;139892.09;;;6.55;100.00
788;BME280;16074;42.708;23.312;2023-03-23T02:26:41;139869.31;;;6.46;100.00
788;BME280;16074;42.708;23.312;2023-03-23T02:29:36;139838.13;;;6.33;100.00
788;BME280;16074;42.708;23.312;2023-03-23T02:32:19;139841.72;;;6.34;100.00
788;BME280;16074;42.708;23.312;2023-03-23T02:34:51;139828.53;;;6.29;100.00
788;BME280;16074;42.708;23.312;2023-03-23T02:37:24;139799.75;;;6.17;100.00
788;BME280;16074;42.708;23.312;2023-03-23T02:39:57;139790.16;;;6.13;100.00
788;BME280;16074;42.708;23.312;2023-03-23T02:42:34;139798.56;;;6.16;100.00
788;BME280;16074;42.708;23.312;2023-03-23T02:45:07;139817.72;;;6.24;100.00
788;BME280;16074;42.708;23.312;2023-03-23T02:47:36;139828.53;;;6.29;100.00
788;BME280;16074;42.708;23.312;2023-03-23T02:50:09;139824.91;;;6.27;100.00
788;BME280;16074;42.708;23.312;2023-03-23T02:52:39;139818.94;;;6.25;100.00
788;BME280;16074;42.708;23.312;2023-03-23T02:55:08;139812.97;;;6.22;100.00
788;BME280;16074;42.708;23.312;2023-03-23T02:57:38;139761.38;;;6.01;100.00
788;BME280;16074;42.708;23.312;2023-03-23T03:00:08;139787.75;;;6.12;100.00
788;BME280;16074;42.708;23.312;2023-03-23T03:02:41;139792.56;;;6.14;100.00
788;BME280;16074;42.708;23.312;2023-03-23T03:05:17;139798.56;;;6.16;100.00
788;BME280;16074;42.708;23.312;2023-03-23T03:08:01;139792.56;;;6.14;100.00
788;BME280;16074;42.708;23.312;2023-03-23T03:10:38;139796.19;;;6.15;100.00
788;BME280;16074;42.708;23.312;2023-03-23T03:13:14;139790.16;;;6.13;100.00
788;BME280;16074;42.708;23.312;2023-03-23T03:15:52;139794.94;;;6.15;100.00
788;BME280;16074;42.708;23.312;2023-03-23T03:18:24;139779.38;;;6.08;100.00
788;BME280;16074;42.708;23.312;2023-03-23T03:20:59;139785.34;;;6.11;100.00
788;BME280;16074;42.708;23.312;2023-03-23T03:23:32;139772.19;;;6.05;100.00
788;BME280;16074;42.708;23.312;2023-03-23T03:26:03;139751.78;;;5.97;100.00
788;BME280;16074;42.708;23.312;2023-03-23T03:28:45;139757.78;;;5.99;100.00
788;BME280;16074;42.708;23.312;2023-03-23T03:31:17;139760.19;;;6.00;100.00
788;BME280;16074;42.708;23.312;2023-03-23T03:33:46;139768.56;;;6.04;100.00
788;BME280;16074;42.708;23.312;2023-03-23T03:36:20;139766.16;;;6.03;100.00
788;BME280;16074;42.708;23.312;2023-03-23T03:38:50;139777.00;;;6.07;100.00
788;BME280;16074;42.708;23.312;2023-03-23T03:41:19;139780.56;;;6.09;100.00
788;BME280;16074;42.708;23.312;2023-03-23T03:43:47;139766.16;;;6.03;100.00
788;BME280;16074;42.708;23.312;2023-03-23T03:46:15;139780.56;;;6.09;100.00
788;BME280;16074;42.708;23.312;2023-03-23T03:48:42;139770.97;;;6.05;100.00
788;BME280;16074;42.708;23.312;2023-03-23T03:51:10;139761.38;;;6.01;100.00
788;BME280;16074;42.708;23.312;2023-03-23T03:53:42;139766.16;;;6.03;100.00
788;BME280;16074;42.708;23.312;2023-03-23T03:56:09;139757.78;;;5.99;100.00
788;BME280;16074;42.708;23.312;2023-03-23T03:58:43;139753.00;;;5.97;100.00
788;BME280;16074;42.708;23.312;2023-03-23T04:01:34;139762.59;;;6.01;100.00
788;BME280;16074;42.708;23.312;2023-03-23T04:04:02;139757.78;;;5.99;100.00
788;BME280;16074;42.708;23.312;2023-03-23T04:06:34;139745.81;;;5.94;100.00
788;BME280;16074;42.708;23.312;2023-03-23T04:09:06;139774.59;;;6.06;100.00
788;BME280;16074;42.708;23.312;2023-03-23T04:11:34;139781.78;;;6.09;100.00
788;BME280;16074;42.708;23.312;2023-03-23T04:14:24;139766.16;;;6.03;100.00
788;BME280;16074;42.708;23.312;2023-03-23T04:16:54;139731.41;;;5.88;100.00
788;BME280;16074;42.708;23.312;2023-03-23T04:19:24;139727.84;;;5.87;100.00
788;BME280;16074;42.708;23.312;2023-03-23T04:21:51;139735.03;;;5.90;100.00
788;BME280;16074;42.708;23.312;2023-03-23T04:24:20;139745.81;;;5.94;100.00
788;BME280;16074;42.708;23.312;2023-03-23T04:26:50;139750.59;;;5.96;100.00
788;BME280;16074;42.708;23.312;2023-03-23T04:29:24;139724.22;;;5.86;100.00
788;BME280;16074;42.708;23.312;2023-03-23T04:32:18;139733.81;;;5.89;100.00
788;BME280;16074;42.708;23.312;2023-03-23T04:34:50;139708.66;;;5.79;100.00
788;BME280;16074;42.708;23.312;2023-03-23T04:37:20;139699.03;;;5.75;100.00
788;BME280;16074;42.708;23.312;2023-03-23T04:39:52;139697.81;;;5.75;100.00
788;BME280;16074;42.708;23.312;2023-03-23T04:42:27;139705.03;;;5.78;100.00
788;BME280;16074;42.708;23.312;2023-03-23T04:45:17;139724.22;;;5.86;100.00
788;BME280;16074;42.708;23.312;2023-03-23T04:47:50;139735.03;;;5.90;100.00
788;BME280;16074;42.708;23.312;2023-03-23T04:50:33;139725.44;;;5.86;100.00
788;BME280;16074;42.708;23.312;2023-03-23T04:53:11;139736.22;;;5.90;100.00
788;BME280;16074;42.708;23.312;2023-03-23T04:55:42;139757.78;;;5.99;100.00
788;BME280;16074;42.708;23.312;2023-03-23T04:58:12;139767.38;;;6.03;100.00
788;BME280;16074;42.708;23.312;2023-03-23T05:01:03;139786.56;;;6.11;100.00
788;BME280;16074;42.708;23.312;2023-03-23T05:03:34;139790.16;;;6.13;100.00
788;BME280;16074;42.708;23.312;2023-03-23T05:06:03;139760.19;;;6.00;100.00
788;BME280;16074;42.708;23.312;2023-03-23T05:08:31;139758.97;;;6.00;100.00
788;BME280;16074;42.708;23.312;2023-03-23T05:11:00;139790.16;;;6.13;100.00
788;BME280;16074;42.708;23.312;2023-03-23T05:13:32;139808.16;;;6.20;100.00
788;BME280;16074;42.708;23.312;2023-03-23T05:16:03;139784.19;;;6.10;100.00
788;BME280;16074;42.708;23.312;2023-03-23T05:18:32;139816.53;;;6.24;100.00
788;BME280;16074;42.708;23.312;2023-03-23T05:21:03;139830.94;;;6.30;100.00
788;BME280;16074;42.708;23.312;2023-03-23T05:23:35;139814.13;;;6.23;100.00
788;BME280;16074;42.708;23.312;2023-03-23T05:26:13;139834.50;;;6.31;100.00
788;BME280;16074;42.708;23.312;2023-03-23T05:28:40;139812.97;;;6.22;100.00
788;BME280;16074;42.708;23.312;2023-03-23T05:31:17;139844.09;;;6.35;100.00
788;BME280;16074;42.708;23.312;2023-03-23T05:33:44;139859.72;;;6.42;100.00
788;BME280;16074;42.708;23.312;2023-03-23T05:36:32;139823.75;;;6.27;100.00
788;BME280;16074;42.708;23.312;2023-03-23T05:39:20;139820.13;;;6.25;100.00
788;BME280;16074;42.708;23.312;2023-03-23T05:42:09;139847.72;;;6.37;100.00
788;BME280;16074;42.708;23.312;2023-03-23T05:45:09;139868.09;;;6.45;100.00
788;BME280;16074;42.708;23.312;2023-03-23T05:47:38;139859.72;;;6.42;100.00
788;BME280;16074;42.708;23.312;2023-03-23T05:50:11;139882.50;;;6.51;100.00
788;BME280;16074;42.708;23.312;2023-03-23T05:52:40;139911.28;;;6.63;100.00
788;BME280;16074;42.708;23.312;2023-03-23T05:55:10;139916.09;;;6.65;100.00
788;BME280;16074;42.708;23.312;2023-03-23T05:57:42;139950.88;;;6.80;100.00
788;BME280;16074;42.708;23.312;2023-03-23T06:00:25;139972.47;;;6.89;100.00
788;BME280;16074;42.708;23.312;2023-03-23T06:03:06;139942.50;;;6.76;100.00
788;BME280;16074;42.708;23.312;2023-03-23T06:05:42;139966.44;;;6.86;100.00
788;BME280;16074;42.708;23.312;2023-03-23T06:08:12;139952.03;;;6.80;100.00
788;BME280;16074;42.708;23.312;2023-03-23T06:10:39;139962.88;;;6.85;100.00
788;BME280;16074;42.708;23.312;2023-03-23T06:13:08;139986.88;;;6.95;100.00
788;BME280;16074;42.708;23.312;2023-03-23T06:15:46;140004.84;;;7.02;100.00
788;BME280;16074;42.708;23.312;2023-03-23T06:18:40;140028.88;;;7.12;100.00
788;BME280;16074;42.708;23.312;2023-03-23T06:21:23;139995.25;;;6.98;100.00
788;BME280;16074;42.708;23.312;2023-03-23T06:24:14;140004.84;;;7.02;100.00
788;BME280;16074;42.708;23.312;2023-03-23T06:26:42;140025.25;;;7.10;100.00
788;BME280;16074;42.708;23.312;2023-03-23T06:29:16;140043.28;;;7.18;100.00
788;BME280;16074;42.708;23.312;2023-03-23T06:31:52;140062.47;;;7.26;100.00
788;BME280;16074;42.708;23.312;2023-03-23T06:34:21;140123.72;;;7.51;100.00
788;BME280;16074;42.708;23.312;2023-03-23T06:37:07;140157.28;;;7.65;100.00
788;BME280;16074;42.708;23.312;2023-03-23T06:39:47;140156.09;;;7.65;100.00
788;BME280;16074;42.708;23.312;2023-03-23T06:42:50;140217.34;;;7.90;100.00
788;BME280;16074;42.708;23.312;2023-03-23T06:45:33;140252.16;;;8.05;100.00
788;BME280;16074;42.708;23.312;2023-03-23T06:48:23;140300.28;;;8.25;100.00
788;BME280;16074;42.708;23.312;2023-03-23T06:50:50;140276.19;;;8.15;100.00
788;BME280;16074;42.708;23.312;2023-03-23T06:53:20;140299.06;;;8.24;100.00
788;BME280;16074;42.708;23.312;2023-03-23T06:55:48;140350.78;;;8.45;100.00
788;BME280;16074;42.708;23.312;2023-03-23T06:58:16;140372.34;;;8.54;100.00
788;BME280;16074;42.708;23.312;2023-03-23T07:00:45;140404.84;;;8.68;100.00
788;BME280;16074;42.708;23.312;2023-03-23T07:03:14;140466.16;;;8.93;100.00
788;BME280;16074;42.708;23.312;2023-03-23T07:05:46;140521.44;;;9.16;100.00
788;BME280;16074;42.708;23.312;2023-03-23T07:08:14;140570.72;;;9.37;100.00
788;BME280;16074;42.708;23.312;2023-03-23T07:10:46;140596.00;;;9.47;100.00
788;BME280;16074;42.708;23.312;2023-03-23T07:13:16;140665.75;;;9.76;100.00
788;BME280;16074;42.708;23.312;2023-03-23T07:15:50;140763.28;;;10.16;100.00
788;BME280;16074;42.708;23.312;2023-03-23T07:18:18;140839.13;;;10.48;100.00
788;BME280;16074;42.708;23.312;2023-03-23T07:20:48;140966.78;;;11.00;100.00
788;BME280;16074;42.708;23.312;2023-03-23T07:23:16;141034.28;;;11.28;100.00
788;BME280;16074;42.708;23.312;2023-03-23T07:25:48;141115.03;;;11.62;100.00
788;BME280;16074;42.708;23.312;2023-03-23T07:28:21;141205.44;;;11.99;100.00
788;BME280;16074;42.708;23.312;2023-03-23T07:30:51;141310.38;;;12.42;99.54
788;BME280;16074;42.708;23.312;2023-03-23T07:33:18;141376.72;;;12.70;99.01
788;BME280;16074;42.708;23.312;2023-03-23T07:35:46;141502.25;;;13.21;96.46
788;BME280;16074;42.708;23.312;2023-03-23T07:38:16;141609.72;;;13.66;92.31
788;BME280;16074;42.708;23.312;2023-03-23T07:40:47;141655.63;;;13.85;88.43
788;BME280;16074;42.708;23.312;2023-03-23T07:43:16;141684.59;;;13.97;88.79
788;BME280;16074;42.708;23.312;2023-03-23T07:46:04;141674.91;;;13.93;87.07
788;BME280;16074;42.708;23.312;2023-03-23T07:48:42;141748.66;;;14.23;86.55
788;BME280;16074;42.708;23.312;2023-03-23T07:51:09;141832.03;;;14.57;82.87
788;BME280;16074;42.708;23.312;2023-03-23T07:53:37;141938.44;;;15.01;82.17
788;BME280;16074;42.708;23.312;2023-03-23T07:56:28;142027.97;;;15.38;80.85
788;BME280;16074;42.708;23.312;2023-03-23T07:59:06;142102.94;;;15.69;76.84
788;BME280;16074;42.708;23.312;2023-03-23T08:01:38;142222.75;;;16.18;75.95
788;BME280;16074;42.708;23.312;2023-03-23T08:04:28;142325.72;;;16.61;71.33
788;BME280;16074;42.708;23.312;2023-03-23T08:07:25;142381.38;;;16.83;68.28
788;BME280;16074;42.708;23.312;2023-03-23T08:10:02;142386.22;;;16.85;64.07
788;BME280;16074;42.708;23.312;2023-03-23T08:12:39;142428.59;;;17.03;64.94
788;BME280;16074;42.708;23.312;2023-03-23T08:15:26;142504.97;;;17.34;64.50
788;BME280;16074;42.708;23.312;2023-03-23T08:18:00;142458.94;;;17.15;60.30
788;BME280;16074;42.708;23.312;2023-03-23T08:20:59;142543.75;;;17.50;62.81
788;BME280;16074;42.708;23.312;2023-03-23T08:23:32;142582.56;;;17.66;60.99
788;BME280;16074;42.708;23.312;2023-03-23T08:26:22;142688.03;;;18.09;59.57
788;BME280;16074;42.708;23.312;2023-03-23T08:29:13;142506.22;;;17.35;61.11
788;BME280;16074;42.708;23.312;2023-03-23T08:32:15;142646.78;;;17.93;58.93
788;BME280;16074;42.708;23.312;2023-03-23T08:35:14;142728.06;;;18.26;58.53
788;BME280;16074;42.708;23.312;2023-03-23T08:38:12;142802.03;;;18.56;52.23
788;BME280;16074;42.708;23.312;2023-03-23T08:41:10;142724.41;;;18.24;51.14
788;BME280;16074;42.708;23.312;2023-03-23T08:44:04;142752.31;;;18.36;51.25
788;BME280;16074;42.708;23.312;2023-03-23T08:46:51;142751.09;;;18.35;51.17
788;BME280;16074;42.708;23.312;2023-03-23T08:49:45;142849.34;;;18.76;51.13
788;BME280;16074;42.708;23.312;2023-03-23T08:52:50;142861.47;;;18.81;50.26
788;BME280;16074;42.708;23.312;2023-03-23T08:55:47;142924.53;;;19.07;51.89
788;BME280;16074;42.708;23.312;2023-03-23T08:58:33;142992.56;;;19.34;44.91
788;BME280;16074;42.708;23.312;2023-03-23T09:01:16;143037.47;;;19.53;45.06
788;BME280;16074;42.708;23.312;2023-03-23T09:03:53;143099.38;;;19.78;44.06
788;BME280;16074;42.708;23.312;2023-03-23T09:06:26;143066.63;;;19.65;41.93
788;BME280;16074;42.708;23.312;2023-03-23T09:08:55;142909.97;;;19.01;45.07
788;BME280;16074;42.708;23.312;2023-03-23T09:11:22;142984.03;;;19.31;46.77
788;BME280;16074;42.708;23.312;2023-03-23T09:13:49;142961.00;;;19.22;46.06
788;BME280;16074;42.708;23.312;2023-03-23T09:16:16;143039.91;;;19.54;45.27
788;BME280;16074;42.708;23.312;2023-03-23T09:18:44;143044.75;;;19.56;42.33
788;BME280;16074;42.708;23.312;2023-03-23T09:21:11;143018.03;;;19.45;43.19
788;BME280;16074;42.708;23.312;2023-03-23T09:23:39;142965.84;;;19.23;44.22
788;BME280;16074;42.708;23.312;2023-03-23T09:26:11;142852.97;;;18.77;45.01
788;BME280;16074;42.708;23.312;2023-03-23T09:28:38;142846.91;;;18.75;46.85
788;BME280;16074;42.708;23.312;2023-03-23T09:31:05;142916.06;;;19.03;45.65
788;BME280;16074;42.708;23.312;2023-03-23T09:33:33;142876.03;;;18.87;43.63
788;BME280;16074;42.708;23.312;2023-03-23T09:36:00;142885.75;;;18.91;44.10
788;BME280;16074;42.708;23.312;2023-03-23T09:38:28;142882.09;;;18.89;45.79
788;BME280;16074;42.708;23.312;2023-03-23T09:41:03;142964.66;;;19.23;45.28
788;BME280;16074;42.708;23.312;2023-03-23T09:43:43;142975.56;;;19.27;44.25
788;BME280;16074;42.708;23.312;2023-03-23T09:46:26;142876.03;;;18.87;45.90
788;BME280;16074;42.708;23.312;2023-03-23T09:48:57;142873.63;;;18.86;44.90
788;BME280;16074;42.708;23.312;2023-03-23T09:51:39;142877.22;;;18.87;46.18
788;BME280;16074;42.708;23.312;2023-03-23T09:54:13;142984.03;;;19.31;45.60
788;BME280;16074;42.708;23.312;2023-03-23T09:56:41;143041.13;;;19.54;45.53
788;BME280;16074;42.708;23.312;2023-03-23T09:59:14;143007.13;;;19.40;43.40
788;BME280;16074;42.708;23.312;2023-03-23T10:01:46;143025.31;;;19.48;43.31
788;BME280;16074;42.708;23.312;2023-03-23T10:04:22;142913.63;;;19.02;44.85
788;BME280;16074;42.708;23.312;2023-03-23T10:06:51;142857.81;;;18.79;45.74
788;BME280;16074;42.708;23.312;2023-03-23T10:09:19;142855.38;;;18.78;44.92
788;BME280;16074;42.708;23.312;2023-03-23T10:11:54;142883.31;;;18.90;44.86
788;BME280;16074;42.708;23.312;2023-03-23T10:14:32;142993.75;;;19.35;45.71
788;BME280;16074;42.708;23.312;2023-03-23T10:17:12;143038.72;;;19.53;43.95
788;BME280;16074;42.708;23.312;2023-03-23T10:19:46;143030.19;;;19.50;41.38
788;BME280;16074;42.708;23.312;2023-03-23T10:22:17;143027.75;;;19.49;43.42
788;BME280;16074;42.708;23.312;2023-03-23T10:24:52;143020.47;;;19.46;41.73
788;BME280;16074;42.708;23.312;2023-03-23T10:27:26;143047.19;;;19.57;43.58
788;BME280;16074;42.708;23.312;2023-03-23T10:30:01;142976.75;;;19.28;41.94
788;BME280;16074;42.708;23.312;2023-03-23T10:32:43;142923.34;;;19.06;43.19
788;BME280;16074;42.708;23.312;2023-03-23T10:35:15;142982.84;;;19.30;42.93
788;BME280;16074;42.708;23.312;2023-03-23T10:37:48;143013.19;;;19.43;44.74
788;BME280;16074;42.708;23.312;2023-03-23T10:40:18;143039.91;;;19.54;42.36
788;BME280;16074;42.708;23.312;2023-03-23T10:42:46;142940.34;;;19.13;44.03
788;BME280;16074;42.708;23.312;2023-03-23T10:45:20;143004.72;;;19.39;44.25
788;BME280;16074;42.708;23.312;2023-03-23T10:47:52;143082.38;;;19.71;42.45
788;BME280;16074;42.708;23.312;2023-03-23T10:50:23;143163.78;;;20.05;42.71
788;BME280;16074;42.708;23.312;2023-03-23T10:52:52;143230.59;;;20.32;42.51
788;BME280;16074;42.708;23.312;2023-03-23T10:55:22;143363.09;;;20.86;42.17
788;BME280;16074;42.708;23.312;2023-03-23T10:58:00;143432.38;;;21.15;39.98
788;BME280;16074;42.708;23.312;2023-03-23T11:00:30;143501.66;;;21.43;40.37
788;BME280;16074;42.708;23.312;2023-03-23T11:02:59;143630.59;;;21.96;39.99
788;BME280;16074;42.708;23.312;2023-03-23T11:05:32;143749.88;;;22.45;38.36
788;BME280;16074;42.708;23.312;2023-03-23T11:08:02;143826.56;;;22.76;37.46
788;BME280;16074;42.708;23.312;2023-03-23T11:10:36;143911.78;;;23.11;36.42
788;BME280;16074;42.708;23.312;2023-03-23T11:13:04;143869.16;;;22.93;37.85
788;BME280;16074;42.708;23.312;2023-03-23T11:15:39;143803.41;;;22.67;36.65
788;BME280;16074;42.708;23.312;2023-03-23T11:18:10;143725.53;;;22.35;37.02
788;BME280;16074;42.708;23.312;2023-03-23T11:20:39;143667.06;;;22.11;38.07
788;BME280;16074;42.708;23.312;2023-03-23T11:23:10;143662.25;;;22.09;38.38
788;BME280;16074;42.708;23.312;2023-03-23T11:25:53;143765.69;;;22.51;37.45
788;BME280;16074;42.708;23.312;2023-03-23T11:28:26;143783.97;;;22.59;36.85
788;BME280;16074;42.708;23.312;2023-03-23T11:30:57;143791.28;;;22.62;36.37
788;BME280;16074;42.708;23.312;2023-03-23T11:33:29;143754.75;;;22.47;35.96
788;BME280;16074;42.708;23.312;2023-03-23T11:35:56;143661.00;;;22.08;36.38
788;BME280;16074;42.708;23.312;2023-03-23T11:38:24;143586.81;;;21.78;38.23
788;BME280;16074;42.708;23.312;2023-03-23T11:40:54;143630.59;;;21.96;37.45
788;BME280;16074;42.708;23.312;2023-03-23T11:43:23;143673.19;;;22.13;36.74
788;BME280;16074;42.708;23.312;2023-03-23T11:46:00;143624.50;;;21.93;36.33
788;BME280;16074;42.708;23.312;2023-03-23T11:48:34;143572.22;;;21.72;36.54
788;BME280;16074;42.708;23.312;2023-03-23T11:51:06;143530.81;;;21.55;39.21
788;BME280;16074;42.708;23.312;2023-03-23T11:53:45;143468.78;;;21.30;38.35
788;BME280;16074;42.708;23.312;2023-03-23T11:56:18;143515.00;;;21.49;38.08
788;BME280;16074;42.708;23.312;2023-03-23T11:58:46;143515.00;;;21.49;38.85
788;BME280;16074;42.708;23.312;2023-03-23T12:01:21;143477.34;;;21.33;38.84
788;BME280;16074;42.708;23.312;2023-03-23T12:04:21;143516.25;;;21.49;39.81
788;BME280;16074;42.708;23.312;2023-03-23T12:06:56;143624.50;;;21.93;37.48
788;BME280;16074;42.708;23.312;2023-03-23T12:09:37;143709.69;;;22.28;36.45
788;BME280;16074;42.708;23.312;2023-03-23T12:12:14;143652.50;;;22.05;36.94
788;BME280;16074;42.708;23.312;2023-03-23T12:14:50;143747.44;;;22.44;37.91
788;BME280;16074;42.708;23.312;2023-03-23T12:17:30;143803.41;;;22.67;36.94
788;BME280;16074;42.708;23.312;2023-03-23T12:20:10;143914.25;;;23.12;35.45
788;BME280;16074;42.708;23.312;2023-03-23T12:22:50;144025.06;;;23.57;36.41
788;BME280;16074;42.708;23.312;2023-03-23T12:25:42;144154.25;;;24.10;34.11
788;BME280;16074;42.708;23.312;2023-03-23T12:28:17;144263.97;;;24.55;34.32
788;BME280;16074;42.708;23.312;2023-03-23T12:30:51;144378.56;;;25.02;32.94
788;BME280;16074;42.708;23.312;2023-03-23T12:33:33;144332.28;;;24.83;32.50
788;BME280;16074;42.708;23.312;2023-03-23T12:36:12;144356.66;;;24.93;32.94
788;BME280;16074;42.708;23.312;2023-03-23T12:38:56;144321.25;;;24.78;32.13
788;BME280;16074;42.708;23.312;2023-03-23T12:41:28;144228.59;;;24.40;33.77
788;BME280;16074;42.708;23.312;2023-03-23T12:43:59;144263.97;;;24.55;33.87
788;BME280;16074;42.708;23.312;2023-03-23T12:49:35;144373.69;;;25.00;32.83
788;BME280;16074;42.708;23.312;2023-03-23T12:52:11;144407.84;;;25.14;33.04
788;BME280;16074;42.708;23.312;2023-03-23T12:54:42;144494.50;;;25.49;32.24
788;BME280;16074;42.708;23.312;2023-03-23T12:57:18;144451.81;;;25.32;32.20
788;BME280;16074;42.708;23.312;2023-03-23T12:59:49;144435.94;;;25.25;31.85
788;BME280;16074;42.708;23.312;2023-03-23T13:02:22;144495.75;;;25.49;33.09
788;BME280;16074;42.708;23.312;2023-03-23T13:04:57;144493.31;;;25.48;32.50
788;BME280;16074;42.708;23.312;2023-03-23T13:07:35;144450.56;;;25.31;32.16
788;BME280;16074;42.708;23.312;2023-03-23T13:10:08;144494.50;;;25.49;33.20
788;BME280;16074;42.708;23.312;2023-03-23T13:12:40;144531.13;;;25.64;31.73
788;BME280;16074;42.708;23.312;2023-03-23T13:15:20;144553.09;;;25.73;31.49
788;BME280;16074;42.708;23.312;2023-03-23T13:17:53;144532.31;;;25.64;31.05
788;BME280;16074;42.708;23.312;2023-03-23T13:20:38;144536.00;;;25.66;31.84
788;BME280;16074;42.708;23.312;2023-03-23T13:23:11;144292.00;;;24.66;31.65
788;BME280;16074;42.708;23.312;2023-03-23T13:25:48;144318.81;;;24.77;32.44
788;BME280;16074;42.708;23.312;2023-03-23T13:28:17;144406.66;;;25.13;32.32
788;BME280;16074;42.708;23.312;2023-03-23T13:30:54;144405.41;;;25.13;32.63
788;BME280;16074;42.708;23.312;2023-03-23T13:33:22;144421.34;;;25.19;32.52
788;BME280;16074;42.708;23.312;2023-03-23T13:35:51;144415.22;;;25.17;31.83
788;BME280;16074;42.708;23.312;2023-03-23T13:38:21;144410.34;;;25.15;33.04
788;BME280;16074;42.708;23.312;2023-03-23T13:40:51;144454.25;;;25.33;31.77